ADDS METAR Data INFO
IDs: Format: Raw Decoded Include TAF

Data at: 1931 UTC 19 Jul 2018

KOWB 191856Z VRB05KT 10SM CLR 31/20 A2995 RMK AO2 SLP148 T03060200
KOWB 191756Z 18006KT 10SM CLR 29/20 A2997 RMK AO2 SLP154 T02940200 10294 20211 58006
KOWB 191656Z 16007KT 10SM CLR 29/21 A2997 RMK AO2 SLP155 T02890206
KOWB 191556Z 15008KT 10SM CLR 27/20 A2998 RMK AO2 SLP159 T02720200
KOWB 191456Z 13006KT 10SM CLR 26/19 A2999 RMK AO2 SLP160 T02560194 58001
KOWB 191356Z 14003KT 10SM CLR 24/18 A3000 RMK AO2 SLP166 T02390183
KOWB 191256Z 12004KT 10SM CLR 24/17 A2999 RMK AO2 SLP162 T02390172
KOWB 191156Z 00000KT 10SM CLR 21/17 A2999 RMK AO2 SLP161 T02110167 10211 20178 53003
KOWB 191056Z 09003KT 10SM CLR 18/17 A2998 RMK AO2 SLP158 T01830167
KOWB 190956Z AUTO 00000KT 10SM CLR 18/17 A2998 RMK AO2 SLP157 T01830167
KOWB 190856Z AUTO 00000KT 10SM CLR 18/16 A2998 RMK AO2 SLP158 T01830161 56006
KOWB 190656Z AUTO 00000KT 10SM CLR 19/16 A2999 RMK AO2 SLP162 T01890161
KOWB 190556Z AUTO 00000KT 10SM CLR 19/17 A3000 RMK AO2 SLP165 T01890167 10278 20189 403000189 50001
KOWB 190456Z AUTO 00000KT 10SM CLR 21/17 A3000 RMK AO2 SLP166 T02060172
KOWB 190356Z AUTO 00000KT 10SM CLR 23/16 A3000 RMK AO2 SLP166 T02280161
KOWB 190256Z 03004KT 10SM CLR 24/16 A3000 RMK AO2 SLP163 T02440161 53006
KOWB 190156Z 02004KT 10SM CLR 26/17 A2999 RMK AO2 SLP160 T02560167
KOWB 190056Z 03004KT 10SM CLR 27/16 A2998 RMK AO2 SLP158 T02670161
KOWB 182356Z 04006KT 10SM CLR 28/17 A2998 RMK AO2 SLP157 T02780172 10300 20278 56008
KOWB 182256Z 03006KT 10SM CLR 29/17 A2998 RMK AO2 SLP158 T02890172
KOWB 182156Z 36007KT 10SM CLR 29/16 A2999 RMK AO2 SLP160 T02940161
KOWB 182056Z 35008KT 10SM CLR 29/17 A3000 RMK AO2 SLP164 T02940172 58019
KOWB 181956Z 05005KT 10SM CLR 29/18 A3002 RMK AO2 SLP172 T02940178
KOWB 181856Z 36009KT 10SM CLR 29/17 A3004 RMK AO2 SLP178 T02890167
KOWB 181756Z 00000KT 10SM CLR 28/17 A3006 RMK AO2 SLP183 T02830172 10289 20222 58005
KOWB 181656Z 05007KT 10SM CLR 28/16 A3006 RMK AO2 SLP184 T02780161
KOWB 181556Z 04007KT 10SM CLR 28/16 A3007 RMK AO2 SLP187 T02780161
KOWB 181456Z 06006KT 10SM CLR 27/16 A3007 RMK AO2 SLP188 T02670156 51002
KOWB 181356Z 06006KT 10SM CLR 25/17 A3007 RMK AO2 SLP188 T02500167
KOWB 181256Z 04005KT 10SM CLR 23/16 A3007 RMK AO2 SLP189 T02330161
KOWB 181156Z 04006KT 10SM CLR 22/17 A3007 RMK AO2 SLP186 T02220167 10244 20217 53010
KOWB 181056Z 05006KT 10SM CLR 22/17 A3005 RMK AO2 SLP181 T02170167
KOWB 180956Z AUTO 05008KT 10SM CLR 22/17 A3004 RMK AO2 SLP178 T02220172
KOWB 180856Z AUTO 04005KT 10SM CLR 22/18 A3003 RMK AO2 SLP175 T02220183 53001
KOWB 180756Z AUTO 04005KT 10SM CLR 23/18 A3003 RMK AO2 SLP173 T02330183